createdAt,value
2019-04-07T00:01:43.396Z,99.99
2019-04-07T00:12:43.596Z,99.99
2019-04-07T00:23:40.833Z,99.99
2019-04-07T00:34:41.470Z,99.99
2019-04-07T00:45:42.608Z,99.99
2019-04-07T00:56:43.851Z,99.99
2019-04-07T01:07:45.380Z,99.99
2019-04-07T01:18:45.753Z,99.99
2019-04-07T01:29:45.672Z,99.99
2019-04-07T01:40:49.579Z,99.99
2019-04-07T01:51:46.496Z,99.99
2019-04-07T02:02:49.429Z,99.99
2019-04-07T02:13:47.397Z,99.99
2019-04-07T02:24:48.086Z,99.99
2019-04-07T02:35:52.514Z,99.99
2019-04-07T02:46:51.576Z,99.99
2019-04-07T02:57:51.125Z,99.99
2019-04-07T03:08:55.911Z,99.99
2019-04-07T03:19:57.490Z,99.99
2019-04-07T03:30:59.098Z,99.99
2019-04-07T03:42:01.050Z,99.99
2019-04-07T03:53:01.734Z,99.99
2019-04-07T04:04:04.104Z,99.99
2019-04-07T04:15:04.000Z,99.99
2019-04-07T04:26:06.675Z,99.99
2019-04-07T04:37:06.376Z,99.99
2019-04-07T04:48:08.970Z,99.99
2019-04-07T04:59:13.308Z,99.99
2019-04-07T05:10:13.383Z,99.99
2019-04-07T05:21:13.910Z,99.99
2019-04-07T05:32:14.820Z,99.99
2019-04-07T05:43:16.441Z,99.99
2019-04-07T05:54:19.820Z,99.99
2019-04-07T06:05:23.168Z,99.99
2019-04-07T06:16:23.772Z,99.99
2019-04-07T06:27:25.503Z,99.99
2019-04-07T06:38:34.234Z,99.99
2019-04-07T06:49:31.640Z,99.99
2019-04-07T07:00:31.569Z,99.99
2019-04-07T07:11:32.388Z,99.99
2019-04-07T07:22:33.489Z,99.99
2019-04-07T07:33:41.467Z,99.99
2019-04-07T07:44:41.821Z,99.99
2019-04-07T07:55:43.558Z,99.99
2019-04-07T08:06:45.378Z,99.99
2019-04-07T08:17:42.066Z,99.99
2019-04-07T08:28:45.268Z,99.99
2019-04-07T08:39:40.608Z,99.99
2019-04-07T08:50:42.046Z,99.99
2019-04-07T09:01:40.458Z,99.99
2019-04-07T09:12:32.244Z,99.99
2019-04-07T09:23:29.467Z,99.99
2019-04-07T09:34:30.585Z,99.99
2019-04-07T09:45:27.662Z,99.99
2019-04-07T09:56:21.739Z,99.99
2019-04-07T10:07:22.940Z,99.99
2019-04-07T10:18:07.688Z,99.99
2019-04-07T10:29:07.158Z,99.99
2019-04-07T10:40:18.863Z,99.99
2019-04-07T10:51:13.733Z,99.85
2019-04-07T11:02:18.088Z,98.71
2019-04-07T11:13:15.821Z,98.19
2019-04-07T11:24:18.752Z,98.31
2019-04-07T11:35:23.274Z,91.52
2019-04-07T11:46:20.924Z,92.11
2019-04-07T11:57:24.252Z,86.75
2019-04-07T12:08:17.379Z,88.53
2019-04-07T12:19:16.297Z,88.37
2019-04-07T12:30:14.372Z,80.47
2019-04-07T12:41:19.101Z,82.75
2019-04-07T12:52:17.426Z,84.41
2019-04-07T13:03:18.202Z,80.30
2019-04-07T13:14:13.952Z,81.49
2019-04-07T13:25:18.804Z,81.85
2019-04-07T13:36:14.914Z,85.03
2019-04-07T13:47:10.694Z,90.45
2019-04-07T13:58:12.489Z,90.05
2019-04-07T14:09:11.480Z,93.76
2019-04-07T14:20:11.504Z,93.76
2019-04-07T14:31:11.799Z,95.86
2019-04-07T14:42:13.136Z,98.31
2019-04-07T14:53:11.011Z,98.30
2019-04-07T15:04:21.527Z,99.99
2019-04-07T15:15:20.356Z,99.16
2019-04-07T15:26:18.015Z,99.99
2019-04-07T15:37:22.916Z,99.99
2019-04-07T15:48:25.726Z,99.30
2019-04-07T15:59:29.407Z,99.99
2019-04-07T16:10:32.093Z,99.99
2019-04-07T16:21:28.945Z,99.99
2019-04-07T16:32:31.081Z,99.99
2019-04-07T16:43:33.791Z,99.99
2019-04-07T16:54:30.202Z,99.99
2019-04-07T17:05:31.152Z,99.99
2019-04-07T17:16:26.903Z,99.99
2019-04-07T17:27:26.335Z,99.99
2019-04-07T17:38:28.021Z,99.99
2019-04-07T17:49:30.948Z,99.99
2019-04-07T18:00:36.346Z,99.99
2019-04-07T18:11:39.904Z,99.99
2019-04-07T18:22:28.629Z,99.99
2019-04-07T18:33:31.357Z,99.99
2019-04-07T18:44:35.352Z,99.99
2019-04-07T18:55:37.160Z,99.99
2019-04-07T19:06:42.167Z,99.99
2019-04-07T19:17:44.791Z,99.99
2019-04-07T19:28:42.318Z,99.99
2019-04-07T19:39:41.212Z,99.99
2019-04-07T19:50:34.975Z,99.99
2019-04-07T20:01:33.622Z,99.99
2019-04-07T20:12:37.148Z,99.99
2019-04-07T20:23:36.034Z,99.99
2019-04-07T20:34:42.860Z,99.99
2019-04-07T20:45:41.498Z,99.99
2019-04-07T20:56:19.063Z,99.99
2019-04-07T21:06:57.973Z,99.99
2019-04-07T21:18:00.221Z,99.99
2019-04-07T21:29:07.409Z,99.99
2019-04-07T21:40:07.635Z,99.99
2019-04-07T21:51:14.285Z,99.99
2019-04-07T22:02:15.326Z,99.99
2019-04-07T22:13:14.247Z,99.99
2019-04-07T22:24:01.342Z,99.99
2019-04-07T22:35:06.524Z,99.99
2019-04-07T22:46:14.762Z,99.99
2019-04-07T22:57:15.062Z,99.99
2019-04-07T23:08:14.604Z,99.99
2019-04-07T23:19:12.624Z,99.99
2019-04-07T23:30:17.266Z,99.99
2019-04-07T23:41:18.168Z,99.99
2019-04-07T23:52:19.909Z,99.99
